Time;durP1;ratioP1;P1;durP2;ratioP2;P2;SDS_P1;SDS_P2;PMS_P1;PMS_P2;Temp;Humidity;BMP_temperature;BMP_pressure;BME280_temperature;BME280_humidity;BME280_pressure;Samples;Min_cycle;Max_cycle;Signal;HPM_P1;HPM_P2
2022/03/30 00:01:27;;;;;;;22.67;11.80;;;13.30;84.10;;;;;;6225847;28;20103;-83
2022/03/30 00:04:31;;;;;;;30.60;12.07;;;13.00;86.70;;;;;;6215597;28;20062;-84
2022/03/30 00:07:48;;;;;;;43.10;14.07;;;12.90;86.80;;;;;;6237522;28;20081;-84
2022/03/30 00:10:50;;;;;;;32.03;12.98;;;12.70;88.40;;;;;;6210923;28;20061;-84
2022/03/30 00:13:52;;;;;;;33.50;12.73;;;12.40;88.20;;;;;;6214473;28;20046;-84
2022/03/30 00:16:53;;;;;;;34.70;13.80;;;12.40;88.80;;;;;;6212984;28;20052;-84
2022/03/30 00:19:57;;;;;;;33.95;13.30;;;12.50;89.50;;;;;;6212554;28;20060;-84
2022/03/30 00:22:59;;;;;;;28.23;13.05;;;12.60;90.00;;;;;;6235645;28;20053;-83
2022/03/30 00:26:01;;;;;;;34.55;14.10;;;12.70;90.20;;;;;;6236556;28;20050;-83
2022/03/30 00:29:04;;;;;;;32.67;15.38;;;12.60;90.20;;;;;;6229380;28;20050;-84
2022/03/30 00:32:07;;;;;;;27.65;13.70;;;12.80;90.40;;;;;;6213468;28;20145;-84
2022/03/30 00:35:11;;;;;;;34.00;15.93;;;12.80;90.40;;;;;;6236837;28;20053;-84
2022/03/30 00:38:12;;;;;;;33.80;14.23;;;12.80;90.10;;;;;;6235617;28;20116;-84
2022/03/30 00:41:14;;;;;;;37.00;15.25;;;12.90;89.70;;;;;;6237947;28;20523;-84
2022/03/30 00:44:16;;;;;;;28.15;13.45;;;13.00;89.60;;;;;;6239828;28;20560;-84
2022/03/30 00:47:19;;;;;;;29.27;14.43;;;13.00;89.60;;;;;;6238773;28;20065;-83
2022/03/30 00:50:24;;;;;;;32.15;13.73;;;13.00;89.40;;;;;;6237305;28;20056;-84
2022/03/30 00:53:26;;;;;;;33.53;16.02;;;13.00;89.60;;;;;;6238086;28;20136;-83
2022/03/30 00:56:30;;;;;;;32.13;15.82;;;13.00;90.00;;;;;;6237556;28;20108;-83
2022/03/30 00:59:32;;;;;;;34.05;15.85;;;13.20;90.00;;;;;;6238798;28;20038;-84
2022/03/30 01:02:34;;;;;;;30.67;14.52;;;12.90;90.40;;;;;;6238804;28;20092;-84
2022/03/30 01:05:37;;;;;;;30.02;14.43;;;13.10;91.00;;;;;;6238100;28;20054;-84
2022/03/30 01:08:39;;;;;;;32.60;14.82;;;12.90;91.30;;;;;;6236498;28;20104;-83
2022/03/30 01:11:42;;;;;;;29.00;14.05;;;12.70;91.70;;;;;;6235984;28;20110;-84
2022/03/30 01:14:43;;;;;;;35.33;16.20;;;12.60;93.00;;;;;;6234902;28;20073;-83
2022/03/30 01:17:45;;;;;;;32.47;15.00;;;12.40;94.00;;;;;;6232091;28;20496;-81
2022/03/30 01:20:49;;;;;;;45.75;17.77;;;12.10;94.20;;;;;;6233331;28;20526;-82
2022/03/30 01:23:51;;;;;;;35.20;15.75;;;12.00;94.90;;;;;;6233931;28;20225;-82
2022/03/30 01:26:53;;;;;;;34.67;17.27;;;11.90;95.70;;;;;;6231640;28;20042;-82
2022/03/30 01:33:14;;;;;;;44.63;17.75;;;12.00;95.50;;;;;;6232789;28;20046;-83
2022/03/30 01:36:19;;;;;;;45.72;18.63;;;12.00;95.70;;;;;;6231429;28;20046;-83
2022/03/30 01:39:21;;;;;;;42.03;19.13;;;11.90;95.70;;;;;;6232813;28;20058;-82
2022/03/30 01:42:23;;;;;;;42.92;17.75;;;11.80;95.60;;;;;;6232272;28;20054;-82
2022/03/30 01:45:25;;;;;;;38.65;16.67;;;11.70;95.80;;;;;;6231896;28;20046;-82
2022/03/30 01:48:27;;;;;;;40.75;18.45;;;11.60;95.90;;;;;;6231373;28;20113;-83
2022/03/30 01:51:30;;;;;;;48.47;20.00;;;11.70;96.00;;;;;;6233444;28;20057;-83
2022/03/30 01:54:37;;;;;;;52.08;20.92;;;11.80;96.00;;;;;;6231749;28;20401;-82
2022/03/30 01:57:39;;;;;;;41.28;17.23;;;11.90;96.00;;;;;;6237405;28;20074;-83
2022/03/30 02:00:41;;;;;;;35.85;17.30;;;11.90;95.80;;;;;;6232382;28;20419;-83
2022/03/30 02:03:43;;;;;;;39.35;18.38;;;11.90;95.90;;;;;;6232689;28;20060;-83
2022/03/30 02:06:46;;;;;;;36.97;18.63;;;11.90;96.20;;;;;;6208271;28;20579;-82
2022/03/30 02:09:48;;;;;;;35.85;17.40;;;11.90;96.20;;;;;;6220544;28;20056;-83
2022/03/30 02:12:50;;;;;;;32.03;16.60;;;11.90;96.10;;;;;;6230804;28;20064;-82
2022/03/30 02:15:51;;;;;;;37.15;18.42;;;11.90;96.10;;;;;;6233777;28;20490;-83
2022/03/30 02:18:53;;;;;;;41.58;18.48;;;11.90;96.10;;;;;;6256012;28;20503;-83
2022/03/30 02:21:56;;;;;;;40.78;19.85;;;12.00;95.80;;;;;;6256757;28;20128;-82
2022/03/30 02:24:58;;;;;;;36.13;18.40;;;12.00;95.80;;;;;;6256486;28;20419;-82
2022/03/30 02:28:00;;;;;;;37.47;18.17;;;12.00;95.90;;;;;;6256298;28;20087;-82
2022/03/30 02:31:02;;;;;;;48.33;19.50;;;12.00;95.50;;;;;;6257360;28;20107;-83
2022/03/30 02:34:04;;;;;;;38.45;17.95;;;11.90;95.30;;;;;;6258285;28;20049;-83
2022/03/30 02:37:08;;;;;;;43.38;19.45;;;11.90;95.30;;;;;;6257265;28;20199;-84
2022/03/30 02:40:10;;;;;;;48.33;20.25;;;11.80;95.20;;;;;;6257245;28;20049;-84
2022/03/30 02:43:16;;;;;;;44.85;18.17;;;11.80;95.10;;;;;;6259331;28;20053;-84
2022/03/30 02:46:18;;;;;;;39.88;18.15;;;11.80;95.20;;;;;;6258696;28;20041;-85
2022/03/30 02:49:20;;;;;;;45.05;19.90;;;11.80;95.00;;;;;;6263434;28;20057;-84
2022/03/30 02:52:23;;;;;;;38.70;19.08;;;11.80;95.00;;;;;;6263119;28;20081;-84
2022/03/30 02:55:25;;;;;;;33.47;18.95;;;11.90;94.90;;;;;;6261912;28;20081;-84
2022/03/30 02:58:27;;;;;;;35.45;16.80;;;11.90;94.70;;;;;;6236278;28;20162;-84
2022/03/30 03:01:28;;;;;;;41.10;17.77;;;12.00;94.60;;;;;;6237375;28;20050;-83
2022/03/30 03:04:31;;;;;;;34.78;17.95;;;12.10;94.50;;;;;;6234179;28;20778;-84
2022/03/30 03:07:34;;;;;;;37.33;17.45;;;12.20;94.10;;;;;;6214403;28;20069;-84
2022/03/30 03:10:38;;;;;;;42.30;16.73;;;12.20;93.90;;;;;;6232775;28;20053;-84
2022/03/30 03:13:40;;;;;;;41.33;18.10;;;12.30;93.80;;;;;;6237653;28;20548;-84
2022/03/30 03:16:42;;;;;;;41.97;19.13;;;12.30;93.60;;;;;;6236059;28;20065;-83
2022/03/30 03:19:43;;;;;;;33.28;15.88;;;12.40;92.70;;;;;;6236614;28;20133;-84
2022/03/30 03:22:46;;;;;;;30.08;15.43;;;12.30;92.60;;;;;;6236109;28;20050;-83
2022/03/30 03:25:48;;;;;;;29.10;14.82;;;12.40;92.50;;;;;;6237287;28;20124;-83
2022/03/30 03:28:50;;;;;;;43.70;18.67;;;12.20;92.20;;;;;;6238448;28;20137;-83
2022/03/30 03:31:52;;;;;;;42.25;18.95;;;12.10;92.20;;;;;;6239251;28;20114;-83
2022/03/30 03:34:54;;;;;;;38.55;17.67;;;12.20;92.40;;;;;;6247488;28;20071;-82
2022/03/30 03:37:57;;;;;;;36.03;15.88;;;12.20;92.50;;;;;;6233985;28;20048;-81
2022/03/30 03:40:59;;;;;;;30.65;16.30;;;12.10;92.40;;;;;;6234039;28;20405;-82
2022/03/30 03:44:01;;;;;;;38.40;15.60;;;12.20;92.40;;;;;;6234473;28;20054;-82
2022/03/30 03:47:03;;;;;;;32.70;15.02;;;12.20;92.20;;;;;;6232984;28;20046;-83
2022/03/30 03:50:06;;;;;;;35.13;15.95;;;12.30;92.20;;;;;;6233344;28;20057;-82
2022/03/30 03:53:09;;;;;;;34.28;16.40;;;12.30;92.20;;;;;;6233765;28;20050;-84
2022/03/30 03:56:11;;;;;;;32.45;14.15;;;12.20;92.50;;;;;;6234164;28;20439;-82
2022/03/30 03:59:13;;;;;;;31.30;15.18;;;12.10;92.40;;;;;;6231848;28;20133;-83
2022/03/30 04:02:14;;;;;;;34.88;16.13;;;12.00;92.70;;;;;;6252234;28;20053;-81
2022/03/30 04:05:16;;;;;;;28.77;15.40;;;11.90;93.00;;;;;;6260215;28;20104;-82
2022/03/30 04:08:20;;;;;;;38.47;16.27;;;11.80;93.00;;;;;;6258135;28;20454;-82
2022/03/30 04:11:22;;;;;;;38.15;17.83;;;11.70;93.30;;;;;;6258364;28;20050;-81
2022/03/30 04:14:24;;;;;;;37.25;16.15;;;11.50;93.70;;;;;;6257306;28;20042;-82
2022/03/30 04:17:26;;;;;;;39.83;17.30;;;11.50;93.80;;;;;;6258121;28;20043;-82
2022/03/30 04:20:28;;;;;;;37.20;16.42;;;11.50;94.50;;;;;;6257593;28;20051;-81
2022/03/30 04:23:31;;;;;;;44.25;18.33;;;11.40;94.30;;;;;;6258115;28;20049;-82
2022/03/30 04:26:33;;;;;;;41.33;18.48;;;11.30;94.40;;;;;;6258078;28;20461;-81
2022/03/30 04:29:35;;;;;;;49.83;20.30;;;11.30;94.60;;;;;;6257302;28;20061;-82
2022/03/30 04:32:37;;;;;;;40.20;18.55;;;11.30;94.80;;;;;;6256821;28;20124;-82
2022/03/30 04:35:38;;;;;;;42.17;19.38;;;11.20;95.20;;;;;;6257201;28;20182;-81
2022/03/30 04:38:42;;;;;;;44.17;19.08;;;11.10;95.40;;;;;;6256823;28;20124;-83
2022/03/30 04:41:44;;;;;;;57.95;21.70;;;11.10;95.80;;;;;;6260349;28;20108;-83
2022/03/30 04:44:45;;;;;;;45.70;19.77;;;11.10;95.60;;;;;;6241143;28;20058;-83
2022/03/30 04:47:47;;;;;;;39.10;19.23;;;11.10;95.60;;;;;;6235826;28;20511;-82
2022/03/30 04:50:49;;;;;;;47.83;19.42;;;11.00;95.90;;;;;;6213536;28;20054;-82
2022/03/30 04:53:53;;;;;;;46.13;18.77;;;11.00;96.10;;;;;;6227844;28;20050;-83
2022/03/30 04:56:54;;;;;;;54.17;20.50;;;10.90;96.00;;;;;;6237989;28;20139;-84
2022/03/30 04:59:56;;;;;;;51.65;19.55;;;10.90;96.20;;;;;;6236570;28;20060;-84
2022/03/30 05:02:58;;;;;;;52.08;20.25;;;11.00;96.10;;;;;;6239051;28;20045;-83
2022/03/30 05:06:00;;;;;;;55.08;18.85;;;11.00;96.00;;;;;;6239059;28;20049;-84
2022/03/30 05:09:04;;;;;;;40.55;19.52;;;11.00;96.00;;;;;;6238146;28;20073;-83
2022/03/30 05:12:06;;;;;;;41.10;18.33;;;11.00;96.20;;;;;;6236159;28;20120;-83
2022/03/30 05:15:11;;;;;;;44.00;20.25;;;11.00;96.40;;;;;;6237109;28;20137;-83
2022/03/30 05:18:13;;;;;;;47.63;18.52;;;11.10;96.40;;;;;;6234465;28;20056;-84
2022/03/30 05:21:15;;;;;;;48.78;21.60;;;11.10;96.30;;;;;;6234409;28;20054;-83
2022/03/30 05:24:18;;;;;;;44.25;17.40;;;11.10;96.30;;;;;;6239820;28;20109;-83
2022/03/30 05:27:20;;;;;;;44.72;19.90;;;11.10;96.40;;;;;;6239874;28;20077;-83
2022/03/30 05:30:22;;;;;;;41.78;19.77;;;11.10;96.30;;;;;;6235701;28;20053;-83
2022/03/30 05:33:23;;;;;;;44.22;18.17;;;11.10;96.30;;;;;;6236704;28;20542;-84
2022/03/30 05:36:25;;;;;;;49.03;20.65;;;11.30;96.60;;;;;;6236226;28;20231;-83
2022/03/30 05:39:29;;;;;;;45.10;18.88;;;11.30;96.20;;;;;;6235908;28;20085;-84
2022/03/30 05:42:31;;;;;;;44.63;18.38;;;11.40;96.20;;;;;;6235001;28;20050;-83
2022/03/30 05:45:34;;;;;;;53.15;20.50;;;11.50;96.10;;;;;;6235779;28;20074;-84
2022/03/30 05:48:36;;;;;;;50.53;19.85;;;11.50;95.90;;;;;;6235342;28;20114;-84
2022/03/30 05:51:38;;;;;;;56.80;21.45;;;11.70;95.90;;;;;;6236064;28;20092;-83
2022/03/30 05:54:41;;;;;;;49.55;20.90;;;11.70;95.80;;;;;;6236864;28;20074;-84
2022/03/30 05:57:44;;;;;;;44.92;20.02;;;11.70;95.70;;;;;;6236253;28;20065;-83
2022/03/30 06:00:46;;;;;;;40.78;19.15;;;11.70;95.70;;;;;;6237016;28;20048;-83
2022/03/30 06:03:48;;;;;;;45.08;21.00;;;11.80;95.70;;;;;;6235092;28;20057;-83
2022/03/30 06:06:50;;;;;;;61.00;21.95;;;11.90;95.80;;;;;;6235458;28;20074;-83
2022/03/30 06:09:53;;;;;;;50.15;20.42;;;11.90;95.70;;;;;;6235757;28;20050;-84
2022/03/30 06:12:56;;;;;;;56.03;21.98;;;12.00;95.70;;;;;;6229000;28;20567;-84
2022/03/30 06:15:58;;;;;;;52.95;18.77;;;12.00;95.60;;;;;;6211165;28;20723;-83
2022/03/30 06:19:00;;;;;;;43.38;20.25;;;12.10;95.50;;;;;;6233412;28;20049;-83
2022/03/30 06:22:05;;;;;;;52.22;20.30;;;12.10;95.50;;;;;;6235313;28;20046;-83
2022/03/30 06:25:10;;;;;;;41.30;19.60;;;12.10;95.30;;;;;;6234593;28;20050;-83
2022/03/30 06:28:12;;;;;;;48.63;20.02;;;12.10;95.40;;;;;;6235585;28;20042;-82
2022/03/30 06:31:17;;;;;;;47.67;19.70;;;12.10;95.40;;;;;;6232897;28;20053;-83
2022/03/30 06:34:19;;;;;;;46.50;19.52;;;12.10;95.40;;;;;;6233728;28;20046;-83
2022/03/30 06:37:20;;;;;;;48.60;20.27;;;12.10;95.40;;;;;;6231934;28;20042;-83
2022/03/30 06:40:24;;;;;;;46.10;21.02;;;12.10;95.40;;;;;;6230699;28;20143;-84
2022/03/30 06:43:25;;;;;;;45.83;18.25;;;12.10;95.30;;;;;;6236625;28;20081;-82
2022/03/30 06:46:28;;;;;;;42.35;19.40;;;12.10;95.40;;;;;;6234560;28;20109;-82
2022/03/30 06:49:30;;;;;;;43.42;18.27;;;12.10;95.60;;;;;;6232318;28;20112;-82
2022/03/30 06:52:35;;;;;;;47.35;20.15;;;12.10;95.80;;;;;;6232879;28;20046;-83
2022/03/30 06:55:38;;;;;;;48.42;19.27;;;12.10;95.60;;;;;;6233423;28;20045;-84
2022/03/30 06:58:40;;;;;;;39.10;17.45;;;12.10;95.80;;;;;;6232567;28;20038;-84
2022/03/30 07:01:42;;;;;;;41.00;18.52;;;12.10;95.70;;;;;;6236130;28;20065;-83
2022/03/30 07:04:44;;;;;;;38.53;19.45;;;12.20;95.80;;;;;;6233489;28;20070;-83
2022/03/30 07:11:06;;;;;;;51.63;20.58;;;12.30;95.80;;;;;;6232312;28;20089;-84
2022/03/30 07:14:08;;;;;;;40.55;19.50;;;12.30;95.80;;;;;;6215953;28;20449;-84
2022/03/30 07:17:10;;;;;;;36.40;16.75;;;12.40;95.80;;;;;;6212430;28;20064;-83
2022/03/30 07:20:13;;;;;;;40.28;20.15;;;12.40;95.80;;;;;;6227252;28;20137;-84
2022/03/30 07:23:15;;;;;;;53.22;18.95;;;12.40;95.80;;;;;;6227082;28;20093;-83
2022/03/30 07:26:18;;;;;;;40.35;18.15;;;12.40;95.80;;;;;;6226658;28;20064;-84
2022/03/30 07:29:19;;;;;;;33.47;15.98;;;12.40;95.70;;;;;;6227213;28;20046;-83
2022/03/30 07:32:23;;;;;;;42.92;16.52;;;12.40;95.80;;;;;;6227129;28;20050;-82
2022/03/30 07:35:27;;;;;;;39.85;16.98;;;12.40;95.70;;;;;;6227723;28;20061;-83
2022/03/30 07:38:29;;;;;;;43.53;18.52;;;12.50;95.70;;;;;;6229089;28;20060;-83
2022/03/30 07:41:32;;;;;;;45.30;18.60;;;12.60;95.80;;;;;;6229532;28;20463;-83
2022/03/30 07:44:34;;;;;;;47.85;19.33;;;12.60;95.70;;;;;;6230456;28;20089;-82
2022/03/30 07:47:36;;;;;;;39.35;17.70;;;12.60;95.60;;;;;;6230138;28;20111;-82
2022/03/30 07:50:38;;;;;;;37.58;16.27;;;12.60;95.60;;;;;;6230316;28;20046;-83
2022/03/30 07:53:40;;;;;;;29.75;16.83;;;12.60;95.70;;;;;;6230717;28;20049;-84
2022/03/30 07:56:43;;;;;;;42.20;17.10;;;12.60;95.70;;;;;;6231009;28;20539;-83
2022/03/30 07:59:45;;;;;;;29.13;14.88;;;12.60;95.60;;;;;;6183529;28;20137;-82
2022/03/30 08:02:47;;;;;;;37.15;15.75;;;12.60;95.60;;;;;;6232411;28;20125;-81
2022/03/30 08:05:49;;;;;;;35.00;17.90;;;12.60;95.60;;;;;;6241122;28;20392;-82
2022/03/30 08:08:51;;;;;;;30.38;16.15;;;12.60;95.60;;;;;;6252074;28;20426;-81
2022/03/30 08:11:54;;;;;;;48.63;19.35;;;12.60;95.70;;;;;;6251595;28;20406;-80
2022/03/30 08:14:56;;;;;;;48.65;20.45;;;12.50;95.70;;;;;;6252283;28;20049;-84
2022/03/30 08:17:58;;;;;;;37.22;18.08;;;12.60;95.70;;;;;;6252932;28;20729;-84
2022/03/30 08:24:20;;;;;;;44.28;20.92;;;12.50;95.80;;;;;;6251588;28;20060;-80
2022/03/30 08:27:25;;;;;;;53.13;23.65;;;12.50;95.70;;;;;;6251563;28;20494;-80
2022/03/30 08:30:27;;;;;;;55.33;21.67;;;12.50;95.70;;;;;;6252084;28;20045;-81
2022/03/30 08:33:28;;;;;;;52.33;22.75;;;12.40;95.90;;;;;;6245973;28;20051;-82
2022/03/30 08:36:30;;;;;;;58.08;20.33;;;12.30;95.70;;;;;;6227396;28;20046;-81
2022/03/30 08:39:33;;;;;;;51.90;20.23;;;12.10;95.30;;;;;;6226198;28;20072;-80
2022/03/30 08:42:38;;;;;;;48.55;20.60;;;11.90;95.60;;;;;;6226522;28;20620;-81
2022/03/30 08:45:41;;;;;;;54.20;23.13;;;11.90;95.50;;;;;;6229413;28;20187;-84
2022/03/30 08:48:44;;;;;;;49.17;20.27;;;11.70;95.60;;;;;;6254838;28;20050;-86
2022/03/30 08:51:47;;;;;;;51.10;20.35;;;11.60;95.50;;;;;;6250708;28;20116;-83
2022/03/30 08:54:51;;;;;;;51.35;20.30;;;11.50;95.10;;;;;;6250692;28;20057;-82
2022/03/30 08:57:54;;;;;;;49.08;22.00;;;11.30;94.90;;;;;;6251500;28;20155;-81
2022/03/30 09:01:07;;;;;;;50.83;20.40;;;11.20;95.00;;;;;;6250696;28;20060;-82
2022/03/30 09:04:13;;;;;;;52.78;24.20;;;11.00;95.40;;;;;;6238718;28;20049;-80
2022/03/30 09:07:20;;;;;;;56.30;22.35;;;11.00;95.60;;;;;;6250256;28;20132;-80
2022/03/30 09:10:25;;;;;;;49.72;21.25;;;11.00;95.30;;;;;;6249380;28;20507;-81
2022/03/30 09:13:28;;;;;;;53.30;22.38;;;10.90;95.50;;;;;;6250945;28;20545;-81
2022/03/30 09:16:40;;;;;;;60.50;23.92;;;10.70;95.40;;;;;;6251305;28;20213;-83
2022/03/30 09:19:42;;;;;;;54.08;22.83;;;10.70;95.70;;;;;;6253105;28;20060;-84
2022/03/30 09:22:46;;;;;;;61.38;24.02;;;10.70;95.70;;;;;;6253187;28;20525;-82
2022/03/30 09:25:49;;;;;;;61.25;24.10;;;10.70;95.90;;;;;;6249677;28;20065;-81
2022/03/30 09:28:53;;;;;;;61.10;24.90;;;10.70;96.00;;;;;;6226775;28;20053;-82
2022/03/30 09:31:55;;;;;;;71.75;26.27;;;10.70;96.10;;;;;;6226955;28;20545;-82
2022/03/30 09:34:57;;;;;;;59.10;24.08;;;10.60;96.10;;;;;;6239655;28;20046;-83
2022/03/30 09:38:04;;;;;;;68.28;27.08;;;10.50;95.90;;;;;;6226686;28;20046;-83
2022/03/30 09:41:09;;;;;;;69.43;26.60;;;10.50;96.60;;;;;;6228875;28;20064;-81
2022/03/30 09:44:12;;;;;;;68.15;25.45;;;10.50;96.60;;;;;;6227603;28;20104;-81
2022/03/30 09:47:14;;;;;;;66.78;28.33;;;10.40;96.60;;;;;;6229295;28;20232;-83
2022/03/30 09:50:16;;;;;;;66.88;25.50;;;10.50;96.90;;;;;;6229189;28;20121;-83
2022/03/30 09:53:22;;;;;;;75.90;27.85;;;10.40;96.90;;;;;;6231088;28;20468;-81
2022/03/30 09:56:25;;;;;;;77.50;26.92;;;10.50;97.00;;;;;;6233172;28;20140;-82
2022/03/30 09:59:31;;;;;;;77.32;27.40;;;10.50;97.00;;;;;;6231219;28;20056;-81
2022/03/30 10:02:35;;;;;;;79.55;28.85;;;10.50;96.80;;;;;;6235565;28;20056;-81
2022/03/30 10:05:38;;;;;;;82.55;30.98;;;10.50;97.00;;;;;;6241714;28;20452;-82
2022/03/30 10:08:41;;;;;;;85.65;30.98;;;10.60;96.90;;;;;;6233701;28;20152;-83
2022/03/30 10:11:44;;;;;;;85.97;28.73;;;10.70;96.90;;;;;;6233046;28;20046;-81
2022/03/30 10:14:48;;;;;;;69.13;26.52;;;10.60;96.90;;;;;;6228783;28;20132;-83
2022/03/30 10:17:50;;;;;;;79.18;26.92;;;10.50;96.70;;;;;;6247194;28;20503;-83
2022/03/30 10:21:06;;;;;;;86.60;28.08;;;10.50;97.80;;;;;;6226680;28;20051;-82
2022/03/30 10:24:29;;;;;;;91.38;29.60;;;10.50;98.00;;;;;;6244574;28;20202;-82
2022/03/30 10:27:37;;;;;;;90.10;30.00;;;10.50;98.10;;;;;;6252048;28;20099;-82
2022/03/30 10:30:43;;;;;;;81.43;28.63;;;10.50;98.10;;;;;;6251078;28;20128;-82
2022/03/30 10:33:45;;;;;;;83.82;27.98;;;10.60;98.30;;;;;;6239103;28;20046;-83
2022/03/30 10:37:00;;;;;;;85.43;28.00;;;10.60;98.30;;;;;;6251822;28;20127;-83
2022/03/30 10:40:11;;;;;;;82.53;29.98;;;10.70;98.20;;;;;;6252224;28;20042;-82
2022/03/30 10:43:14;;;;;;;93.22;29.75;;;10.80;98.30;;;;;;6227793;28;20093;-84
2022/03/30 10:46:37;;;;;;;89.95;28.70;;;10.80;98.10;;;;;;6244611;28;20050;-83
2022/03/30 10:49:41;;;;;;;81.43;30.05;;;10.80;98.10;;;;;;6251501;28;20042;-82
2022/03/30 10:52:44;;;;;;;68.15;26.95;;;10.90;98.50;;;;;;6229345;28;20419;-83
2022/03/30 10:55:46;;;;;;;73.40;26.92;;;10.90;98.00;;;;;;6227707;28;20056;-83
2022/03/30 10:59:09;;;;;;;81.70;28.08;;;10.80;98.20;;;;;;6227094;28;20042;-82
2022/03/30 11:02:15;;;;;;;92.47;30.98;;;10.90;98.40;;;;;;6233688;28;20051;-84
2022/03/30 11:05:28;;;;;;;95.50;30.38;;;11.00;98.30;;;;;;6226843;28;20049;-83
2022/03/30 11:08:57;;;;;;;78.65;26.83;;;11.00;98.20;;;;;;6226992;28;20558;-83
2022/03/30 11:12:00;;;;;;;85.47;29.65;;;11.00;98.20;;;;;;6230627;28;20435;-82
2022/03/30 11:15:03;;;;;;;95.95;31.08;;;11.00;98.10;;;;;;6232661;28;20503;-84
2022/03/30 11:18:19;;;;;;;87.22;27.80;;;11.00;98.00;;;;;;6231400;28;20050;-83
2022/03/30 11:21:21;;;;;;;80.38;30.63;;;11.10;98.10;;;;;;6232261;28;20106;-84
2022/03/30 11:24:25;;;;;;;79.68;28.83;;;11.20;97.90;;;;;;6232884;28;20050;-83
2022/03/30 11:27:27;;;;;;;85.57;28.40;;;11.20;97.80;;;;;;6233140;28;20056;-83
2022/03/30 11:30:30;;;;;;;77.10;28.88;;;11.20;97.40;;;;;;6233096;28;20065;-84
2022/03/30 11:33:34;;;;;;;82.55;27.38;;;11.10;97.70;;;;;;6242057;28;20057;-84
2022/03/30 11:36:37;;;;;;;79.32;29.05;;;11.10;97.20;;;;;;6256820;28;20049;-81
2022/03/30 11:39:41;;;;;;;92.75;34.33;;;10.90;97.50;;;;;;6256403;28;20045;-83
2022/03/30 11:42:44;;;;;;;87.80;30.83;;;10.90;97.60;;;;;;6256586;28;20091;-82
2022/03/30 11:45:47;;;;;;;91.43;36.03;;;11.00;97.80;;;;;;6255225;28;20056;-81
2022/03/30 11:48:50;;;;;;;97.90;33.28;;;11.20;97.90;;;;;;6256550;28;20414;-84
2022/03/30 11:51:54;;;;;;;100.45;34.40;;;11.30;97.80;;;;;;6259636;28;20053;-84
2022/03/30 11:54:56;;;;;;;95.45;32.83;;;11.50;97.60;;;;;;6258454;28;20511;-84
2022/03/30 11:58:00;;;;;;;82.05;30.52;;;11.60;97.50;;;;;;6233645;28;20783;-83
2022/03/30 12:01:04;;;;;;;92.80;31.95;;;11.70;97.40;;;;;;6232126;28;20132;-85
2022/03/30 12:04:07;;;;;;;88.70;33.25;;;12.00;97.40;;;;;;6249084;28;20046;-85
2022/03/30 12:07:14;;;;;;;85.38;31.75;;;12.20;96.80;;;;;;6231496;28;20073;-84
2022/03/30 12:10:16;;;;;;;64.90;27.45;;;12.40;97.00;;;;;;6231749;28;20049;-83
2022/03/30 12:13:23;;;;;;;66.45;27.98;;;12.70;96.20;;;;;;6231114;28;20072;-84
2022/03/30 12:16:27;;;;;;;65.95;27.15;;;12.70;96.20;;;;;;6230956;28;20050;-86
2022/03/30 12:19:30;;;;;;;59.58;25.52;;;12.90;96.50;;;;;;6230298;28;20053;-81
2022/03/30 12:22:32;;;;;;;57.60;27.23;;;13.10;96.20;;;;;;6229949;28;20056;-83
2022/03/30 12:25:36;;;;;;;50.28;25.13;;;13.20;95.80;;;;;;6231483;28;20072;-82
2022/03/30 12:28:38;;;;;;;51.42;24.20;;;13.30;95.50;;;;;;6227087;28;20046;-83
2022/03/30 12:31:44;;;;;;;48.88;23.98;;;13.50;95.40;;;;;;6224171;28;20380;-81
2022/03/30 12:34:47;;;;;;;46.65;23.08;;;13.70;95.10;;;;;;6238193;28;20046;-83
2022/03/30 12:37:49;;;;;;;37.33;19.83;;;13.90;94.40;;;;;;6227620;28;20591;-84
2022/03/30 12:40:53;;;;;;;41.08;21.25;;;13.90;94.00;;;;;;6227492;28;20042;-82
2022/03/30 12:43:59;;;;;;;43.45;20.83;;;13.80;93.60;;;;;;6228296;28;20057;-81
2022/03/30 12:47:02;;;;;;;38.78;22.15;;;13.70;93.40;;;;;;6229108;28;20046;-83
2022/03/30 12:50:09;;;;;;;51.17;27.50;;;13.70;93.40;;;;;;6227345;28;20049;-84
2022/03/30 12:53:16;;;;;;;47.45;22.65;;;13.60;93.40;;;;;;6227918;28;20528;-82
2022/03/30 12:56:20;;;;;;;41.78;23.15;;;13.50;93.30;;;;;;6228453;28;20058;-84
2022/03/30 12:59:24;;;;;;;47.85;23.98;;;13.40;93.60;;;;;;6229001;28;20496;-83
2022/03/30 13:02:26;;;;;;;42.58;23.73;;;13.50;93.50;;;;;;6236485;28;20546;-82
2022/03/30 13:05:30;;;;;;;42.33;23.08;;;13.60;93.30;;;;;;6257501;28;20097;-85
2022/03/30 13:08:32;;;;;;;45.42;22.90;;;13.70;92.80;;;;;;6226523;28;20423;-82
2022/03/30 13:11:41;;;;;;;38.03;21.73;;;13.70;92.40;;;;;;6225371;28;20072;-83
2022/03/30 13:14:49;;;;;;;39.03;21.20;;;13.80;92.60;;;;;;6225555;28;20061;-81
2022/03/30 13:17:57;;;;;;;37.60;20.77;;;14.00;92.60;;;;;;6243400;23;20053;-85
2022/03/30 13:21:02;;;;;;;35.45;19.33;;;14.00;92.20;;;;;;6228821;28;20049;-85
2022/03/30 13:24:12;;;;;;;35.90;20.17;;;14.00;91.50;;;;;;6227968;28;20534;-87
2022/03/30 13:27:14;;;;;;;40.88;20.60;;;13.80;91.60;;;;;;6203691;28;20137;-84
2022/03/30 13:30:16;;;;;;;42.47;22.63;;;13.80;92.20;;;;;;6201563;28;20082;-85
2022/03/30 13:33:18;;;;;;;46.85;21.50;;;13.80;92.10;;;;;;6206507;28;20061;-85
2022/03/30 13:36:22;;;;;;;38.15;20.25;;;14.00;92.30;;;;;;6223373;28;20050;-85
2022/03/30 13:39:24;;;;;;;32.38;19.02;;;14.20;91.10;;;;;;6223859;28;20566;-86
2022/03/30 13:42:34;;;;;;;37.60;20.48;;;14.30;90.90;;;;;;6224987;28;20121;-88
2022/03/30 13:45:38;;;;;;;40.00;19.67;;;14.50;90.60;;;;;;6221420;28;20503;-85
2022/03/30 13:48:41;;;;;;;40.95;22.42;;;14.60;90.40;;;;;;6225328;28;20056;-85
2022/03/30 13:51:45;;;;;;;37.92;21.17;;;14.70;90.40;;;;;;6225776;28;20559;-85
2022/03/30 13:54:46;;;;;;;36.88;19.58;;;14.80;89.20;;;;;;6221490;28;20061;-85
2022/03/30 13:57:48;;;;;;;34.72;19.45;;;14.90;89.20;;;;;;6220912;28;20058;-84
2022/03/30 14:00:51;;;;;;;37.75;20.50;;;14.90;89.30;;;;;;6224951;28;20042;-84
2022/03/30 14:03:53;;;;;;;33.35;18.17;;;14.80;89.10;;;;;;6212557;28;20050;-86
2022/03/30 14:07:08;;;;;;;45.63;21.15;;;14.70;88.70;;;;;;6205932;28;20042;-86
2022/03/30 14:10:10;;;;;;;38.45;20.70;;;14.50;88.80;;;;;;6222907;28;20049;-85
2022/03/30 14:13:12;;;;;;;35.92;20.35;;;14.40;89.40;;;;;;6222887;28;20065;-85
2022/03/30 14:16:14;;;;;;;38.28;21.52;;;14.40;90.20;;;;;;6211628;28;20064;-84
2022/03/30 14:19:16;;;;;;;33.53;18.08;;;14.60;90.30;;;;;;6221903;28;20136;-85
2022/03/30 14:22:20;;;;;;;36.45;19.73;;;14.90;90.10;;;;;;6221485;28;20404;-87
2022/03/30 14:25:25;;;;;;;45.97;19.02;;;15.10;87.80;;;;;;6218754;28;20049;-87
2022/03/30 14:28:29;;;;;;;32.83;18.25;;;15.10;88.10;;;;;;6221961;28;20142;-87
2022/03/30 14:31:32;;;;;;;30.58;17.48;;;15.10;88.20;;;;;;6218344;28;20050;-88
2022/03/30 14:34:37;;;;;;;37.72;18.58;;;15.00;88.60;;;;;;6213105;28;20419;-86
2022/03/30 14:37:43;;;;;;;32.90;17.08;;;14.80;88.40;;;;;;6222039;28;20130;-87
2022/03/30 14:41:00;;;;;;;31.70;17.73;;;14.80;88.90;;;;;;6243438;28;20049;-87
2022/03/30 14:44:04;;;;;;;37.87;18.87;;;14.80;88.40;;;;;;6251695;28;20499;-88
2022/03/30 14:47:06;;;;;;;32.33;16.67;;;14.80;88.40;;;;;;6272089;28;20077;-86
2022/03/30 14:53:29;;;;;;;31.52;17.58;;;14.60;88.20;;;;;;6252190;28;20495;-86
2022/03/30 14:56:31;;;;;;;34.03;18.15;;;14.50;87.70;;;;;;6242604;28;20139;-86
2022/03/30 15:03:13;;;;;;;33.08;17.25;;;14.20;88.70;;;;;;6243829;28;20045;-86
2022/03/30 15:06:17;;;;;;;36.67;18.23;;;14.20;89.50;;;;;;6251121;28;20080;-87
2022/03/30 15:09:26;;;;;;;38.78;17.95;;;14.10;90.20;;;;;;6231357;28;20108;-87
2022/03/30 15:12:28;;;;;;;31.88;17.50;;;14.10;89.80;;;;;;6241987;28;20076;-85
2022/03/30 15:15:43;;;;;;;33.40;17.80;;;14.00;90.00;;;;;;6250314;28;20654;-87
2022/03/30 15:19:02;;;;;;;41.72;18.15;;;14.00;90.00;;;;;;6240781;28;20053;-88
2022/03/30 15:22:18;;;;;;;;;;;13.90;90.40;;;;;;6249782;28;20045;-88
2022/03/30 15:25:41;;;;;;;32.05;16.98;;;13.90;91.10;;;;;;6236349;28;19921;-85
2022/03/30 15:28:45;;;;;;;34.83;17.65;;;13.90;91.20;;;;;;6249717;28;20622;-85
2022/03/30 15:31:52;;;;;;;39.42;20.52;;;14.00;91.30;;;;;;6248083;28;20045;-86
2022/03/30 15:35:53;;;;;;;38.40;20.02;;;14.00;90.00;;;;;;6242253;28;20057;-86
2022/03/30 15:38:57;;;;;;;32.65;18.58;;;13.80;89.60;;;;;;6244276;28;20061;-85
2022/03/30 15:57:21;;;;;;;39.28;21.25;;;13.50;91.20;;;;;;6236931;28;20050;-86
2022/03/30 16:01:14;;;;;;;160.02;48.70;;;13.50;91.20;;;;;;6228073;28;20044;-88
2022/03/30 17:29:00;;;;;;;34.15;17.58;;;12.60;91.60;;;;;;6232725;28;20053;-84
2022/03/30 17:32:04;;;;;;;37.67;19.50;;;12.70;91.50;;;;;;6233577;28;20053;-84